Latest Conditions
At L.F.Wade Int. Airport
Recorded at 5:55 pm
Mostly Cloudy
Temp.: 
22°C/71°F
Humidity: 
86%
Wind: 
SW 11KT
or 13mph
Island Observations
 
Observations
Thursday, April 22, 2021

Observations are in local time and taken at least once an hour, or upon the start and end of specified events such as showers and thunderstorms.

Time Sky / Weather Wind Speed/Gusts Temp. R.H. Pressure
     knots (mph)  °C (°F)  %  mb / "Hg
 17:55 Mostly Cloudy  SW 11/0 (13/0) 22(71) 86 1015 / 29.96
 17:40 Mostly Cloudy  WSW 11/0 (13/0) 21(70) 90 1015 / 29.96
 16:55 Overcast  SSW 14/0 (16/0) 20(69) 94 1014 / 29.94
 15:55 Overcast  SW 15/0 (17/0) 20(69) 93 1014 / 29.95
 15:18 Overcast  SW 15/0 (17/0) 22(71) 84 1014 / 29.95
 14:55 Overcast  SW 15/0 (17/0) 22(71) 84 1015 / 29.96
 13:55 Mostly Cloudy  SW 15/0 (17/0) 22(72) 79 1015 / 29.96
 12:55 Overcast  SW 16/0 (18/0) 22(72) 80 1015 / 29.97
 11:55 Overcast Showers WSW 14/0 (16/0) 22(72) 87 1015 / 29.97
 10:55 Overcast Showers WSW 15/0 (17/0) 21(70) 91 1015 / 29.96
 10:44 Overcast Showers WSW 15/0 (17/0) 21(70) 92 1015 / 29.96
 10:22 Overcast Mist WSW 13/0 (15/0) 21(71) 92 1015 / 29.96
 09:55 Overcast Mist WSW 13/0 (15/0) 21(71) 92 1014 / 29.95
 08:55 Overcast Mist WSW 14/0 (16/0) 21(71) 92 1014 / 29.93
 08:39 Overcast Mist WSW 13/0 (15/0) 22(71) 91 1014 / 29.93
 08:10 Overcast Mist SW 12/0 (14/0) 22(71) 91 1014 / 29.93
 07:55 Overcast Mist SW 13/0 (15/0) 22(71) 92 1014 / 29.93
 07:40 Overcast Showers SW 13/0 (15/0) 22(71) 92 1014 / 29.93
 06:55 Mostly Cloudy  WSW 14/0 (16/0) 22(71) 92 1013 / 29.91
 06:11 Overcast Showers WSW 16/26 (18/30) 22(71) 92 1013 / 29.91
 05:55 Overcast Showers SW 18/0 (21/0) 22(71) 92 1013 / 29.91
 04:55 Overcast  SW 13/24 (15/28) 21(70) 94 1013 / 29.91
 03:55 Overcast  SSW 13/0 (15/0) 21(69) 92 1013 / 29.91
 02:55 Overcast  SSW 14/0 (16/0) 20(69) 92 1013 / 29.91
 01:55 Overcast  SW 15/0 (17/0) 20(69) 87 1013 / 29.92
 00:55 Overcast  SSW 14/0 (16/0) 21(69) 87 1014 / 29.94
 00:17 Overcast  SW 15/0 (17/0) 20(68) 91 1015 / 29.96
 23:55 Overcast Rain SSW 15/0 (17/0) 20(68) 91 1015 / 29.96
 22:55 Overcast  SSW 15/0 (17/0) 20(67) 94 1015 / 29.98
 22:40 Overcast  SSW 15/0 (17/0) 20(67) 94 1016 / 29.99
 22:17 Overcast  S 16/0 (18/0) 20(67) 94 1015 / 29.97
 21:55 Overcast  S 14/0 (16/0) 19(66) 92 1015 / 29.96
 20:55 Overcast Rain SSW 11/0 (13/0) 19(66) 92 1015 / 29.98
 20:43 Overcast Rain SW 10/0 (12/0) 20(67) 92 1015 / 29.98
 20:16 Overcast Showers SSW 11/0 (13/0) 20(68) 91 1015 / 29.97
 20:10 Overcast Thunderstorm S 14/0 (16/0) 20(68) 91 1015 / 29.96
 20:04 Overcast Thunderstorm SSE 16/0 (18/0) 20(68) 93 1014 / 29.94
 20:02 Overcast  SSW 16/0 (18/0) 20(68) 91 1015 / 29.97
 19:59 Overcast Thunderstorm SW 16/0 (18/0) 20(69) 92 1016 / 29.99
 19:55 Overcast Thunderstorm SW 14/0 (16/0) 20(69) 92 1015 / 29.97
 19:33 Overcast Showers S 17/0 (20/0) 21(70) 93 1015 / 29.97
 19:14 Overcast Showers S 15/0 (17/0) 21(69) 93 1014 / 29.95
 18:55 Overcast Thunderstorm SW 17/27 (20/31) 20(69) 95 1016 / 29.99
 18:48 Overcast Thunderstorm SW 20/30 (23/35) 20(68) 92 1016 / 29.99
 18:45 Overcast Thunderstorm SSW 22/0 (25/0) 20(68) 92 1016 / 30.00
 18:25 Overcast Thunderstorm S 19/0 (22/0) 20(68) 95 1014 / 29.95
 18:06 Overcast Showers S 18/0 (21/0) 20(68) 95 1014 / 29.95
 17:55 Overcast Showers S 12/0 (14/0) 20(68) 94 1016 / 29.99
 17:47 Overcast Showers S 13/0 (15/0) 20(68) 94 1015 / 29.98
 17:34 Overcast Showers S 16/0 (18/0) 20(68) 94 1015 / 29.97
 17:10 Overcast Thunderstorm S 13/0 (15/0) 20(68) 95 1015 / 29.98
 17:03 Overcast Thunderstorm S 14/0 (16/0) 20(68) 94 1015 / 29.97
 16:55 Overcast Thunderstorm SSE 16/0 (18/0) 20(68) 94 1015 / 29.98
 16:12 Overcast Thunderstorm SSE 18/0 (21/0) 20(67) 94 1015 / 29.98
 16:02 Overcast Rain SSE 18/0 (21/0) 20(67) 92 1015 / 29.98
 15:55 Overcast Rain SSE 17/0 (20/0) 20(68) 92 1015 / 29.98
 15:40 Overcast Rain SE 16/0 (18/0) 20(68) 90 1015 / 29.98
 15:23 Overcast  SE 15/0 (17/0) 20(68) 91 1016 / 29.99
 15:07 Overcast Rain SE 13/0 (15/0) 20(68) 91 1016 / 30.01
 14:55 Overcast Rain SE 13/0 (15/0) 20(68) 92 1017 / 30.02
 13:55 Overcast Rain SE 14/0 (16/0) 20(67) 90 1017 / 30.04
 13:43 Overcast  SE 15/0 (17/0) 20(67) 90 1017 / 30.04
 13:17 Overcast  ESE 17/0 (20/0) 19(67) 87 1017 / 30.03
 12:55 Overcast Rain ESE 18/0 (21/0) 19(66) 89 1017 / 30.04
 12:35 Overcast Rain SE 21/0 (24/0) 19(66) 88 1017 / 30.04
 12:23 Overcast  ESE 20/0 (23/0) 19(66) 86 1017 / 30.04
 12:19 Overcast  SE 18/0 (21/0) 19(67) 86 1017 / 30.04
 11:55 Overcast Rain ESE 21/0 (24/0) 19(66) 86 1018 / 30.06
 10:55 Overcast  ESE 20/0 (23/0) 19(65) 87 1019 / 30.08
 09:55 Overcast Rain E 18/0 (21/0) 18(64) 91 1020 / 30.11
 08:55 Overcast Rain E 16/0 (18/0) 18(64) 92 1020 / 30.12
 08:34 Overcast Rain E 14/0 (16/0) 18(64) 92 1020 / 30.12
 08:21 Overcast Rain E 14/0 (16/0) 18(64) 92 1020 / 30.13
 08:08 Overcast Rain E 13/0 (15/0) 18(64) 92 1020 / 30.13
 08:01 Overcast Rain E 12/0 (14/0) 18(64) 92 1020 / 30.13
 07:55 Overcast Rain E 15/0 (17/0) 18(64) 92 1020 / 30.12
 07:33 Overcast Rain E 14/0 (16/0) 18(64) 91 1020 / 30.13
 06:55 Overcast Rain ESE 18/0 (21/0) 18(64) 91 1020 / 30.11
 05:55 Overcast Rain E 16/0 (18/0) 17(63) 93 1019 / 30.09
 05:24 Overcast Rain E 11/0 (13/0) 17(63) 93 1019 / 30.10
 05:01 Overcast Thunderstorm E 7/0 (8/0) 16(62) 90 1020 / 30.13
 04:55 Overcast Showers VRB 2/0 (2/0) 17(63) 87 1021 / 30.15
 04:42 Overcast Showers VRB 2/0 (2/0) 17(63) 87 1022 / 30.17
 04:22 Overcast Thunderstorm ENE 7/0 (8/0) 18(64) 88 1020 / 30.12
 04:03 Overcast Thunderstorm ESE 10/0 (12/0) 18(65) 86 1020 / 30.12
 03:55 Overcast Thunderstorm E 12/0 (14/0) 19(66) 80 1019 / 30.10
 02:55 Overcast  E 10/0 (12/0) 19(66) 75 1019 / 30.10
 01:55 Overcast  E 11/0 (13/0) 19(66) 75 1020 / 30.12
 00:55 Mostly Cloudy  E 10/0 (12/0) 19(66) 75 1021 / 30.14
 23:55 Mostly Cloudy  E 8/0 (9/0) 19(66) 73 1022 / 30.17
 22:55 Mostly Cloudy  E 7/0 (8/0) 19(66) 75 1021 / 30.16
 21:55 Overcast  ENE 6/0 (7/0) 19(66) 74 1021 / 30.16
 20:55 Overcast  NE 5/0 (6/0) 19(66) 74 1021 / 30.16
 19:55 Mostly Cloudy  N 8/0 (9/0) 19(67) 74 1020 / 30.13
 18:55 Mostly Cloudy  N 5/0 (6/0) 20(68) 75 1020 / 30.12
 17:55 Overcast  NW 7/0 (8/0) 20(69) 75 1019 / 30.09
 16:55 Overcast  NW 11/0 (13/0) 21(69) 72 1018 / 30.07
 15:55 Mostly Cloudy  WNW 13/0 (15/0) 21(70) 76 1017 / 30.04
 14:55 Mostly Cloudy  WNW 14/0 (16/0) 21(70) 76 1017 / 30.04
 13:55 Mostly Cloudy  WNW 17/0 (20/0) 22(72) 81 1017 / 30.03
Island AWOS